Latest Weather Observations for Mildura

IDN60801

Issued at 10:32 am EST Friday 22 September 2017 (issued every 30 minutes, with the page automatically refreshed every 10 minutes)

About weather observations | Map of weather stations | Latest weather observations for NSW | Other Formats
Station Details ID: 076031 Name: MILDURA AIRPORT Lat: -34.24 Lon: 142.09 Height: 50.0 m
Data from the previous 72 hours. | See also: Recent months at Mildura
Date/Time
EST
Temp
°C
App
Temp
°C
Dew
Point
°C
Rel
Hum
%
Delta-T
°C
Wind Press
QNH
hPa
Press
MSL
hPa
Rain since
9am
mm
Dir  Spd
km/h
Gust
km/h
Spd
kts
Gust
kts
22/10:30am 24.7 22.1 7.8 34 9.0 NE 11 15 6 8 1008.9 1008.9 0.0
22/10:00am 23.3 21.3 8.6 39 7.9 ENE 9 13 5 7 1009.5 1009.5 0.0
22/09:30am 21.3 19.1 9.2 46 6.5 ENE 11 17 6 9 1009.7 1009.7 0.0
22/09:00am 19.4 17.6 10.9 58 4.6 NE 11 15 6 8 1009.6 1009.6 0.0
22/08:30am 16.4 15.0 10.9 70 2.9 ENE 9 11 5 6 1009.8 1009.8 0.0
22/08:00am 14.0 13.5 10.8 81 1.7 ESE 4 9 2 5 1009.7 1009.7 0.0
22/07:30am 11.1 11.3 10.5 96 0.3 CALM 0 0 0 0 1009.6 1009.6 0.0
22/07:00am 8.3 6.7 8.2 99 0.0 S 6 9 3 5 1009.7 1009.7 0.0
22/06:30am 8.0 5.8 7.7 98 0.1 SSW 9 11 5 6 1009.7 1009.7 0.0
22/06:00am 8.3 7.8 8.0 98 0.1 CALM 0 0 0 0 1009.7 1009.7 0.0
22/05:30am 9.0 8.7 8.7 98 0.1 CALM 0 0 0 0 1009.6 1009.6 0.0
22/05:00am 9.1 8.8 8.6 97 0.2 CALM 0 0 0 0 1009.6 1009.6 0.0
22/04:30am 9.4 9.1 8.6 95 0.4 CALM 0 0 0 0 1009.6 1009.6 0.0
22/04:00am 9.9 9.7 9.0 94 0.4 CALM 0 0 0 0 1009.7 1009.7 0.0
22/03:30am 10.6 9.7 9.2 91 0.7 SSE 4 7 2 4 1009.7 1009.7 0.0
22/03:00am 11.3 9.9 9.7 90 0.8 SSE 7 9 4 5 1009.7 1009.7 0.0
22/02:30am 12.0 10.8 10.2 89 0.9 SSE 7 9 4 5 1010.1 1010.1 0.0
22/02:00am 12.5 10.9 10.2 86 1.2 SSE 9 11 5 6 1010.3 1010.3 0.0
22/01:30am 12.8 11.6 10.2 84 1.3 S 7 11 4 6 1010.6 1010.6 0.0
22/01:00am 13.5 11.9 10.3 81 1.7 SSE 9 11 5 6 1010.8 1010.8 0.0
22/12:30am 14.2 12.7 10.4 78 2.0 SSE 9 13 5 7 1011.0 1011.0 0.0
22/12:00am 15.2 13.0 10.8 75 2.3 SSE 13 19 7 10 1011.0 1011.0 0.0
 
Date/Time
EST
Temp
°C
App
Temp
°C
Dew
Point
°C
Rel
Hum
%
Delta-T
°C
Wind Press
QNH
hPa
Press
MSL
hPa
Rain since
9am
mm
Dir  Spd
km/h
Gust
km/h
Spd
kts
Gust
kts
21/11:30pm 15.9 13.7 10.7 71 2.8 S 13 19 7 10 1010.8 1010.8 0.0
21/11:00pm 16.8 14.1 10.2 65 3.5 S 15 22 8 12 1010.8 1010.8 0.0
21/10:30pm 17.4 14.9 9.6 60 4.1 S 13 20 7 11 1010.7 1010.7 0.0
21/10:00pm 18.4 15.1 8.1 51 5.3 SSW 15 24 8 13 1010.4 1010.4 0.0
21/09:30pm 19.4 15.0 6.5 43 6.5 S 19 30 10 16 1009.7 1009.7 0.0
21/09:00pm 20.5 15.3 -0.2 25 9.2 S 17 30 9 16 1009.6 1009.6 0.0
21/08:30pm 22.5 17.6 -3.0 18 10.9 SW 13 28 7 15 1009.2 1009.2 0.0
21/08:00pm 22.8 18.3 -3.5 17 11.2 WSW 11 13 6 7 1008.7 1008.7 0.0
21/07:30pm 21.3 17.7 -1.9 21 10.0 NNE 7 9 4 5 1008.0 1008.0 0.0
21/07:00pm 22.5 18.3 -0.9 21 10.4 NNE 11 11 6 6 1007.5 1007.5 0.0
21/06:30pm 25.3 21.1 -4.1 14 12.6 N 9 13 5 7 1007.4 1007.4 0.0
21/06:00pm 27.7 23.1 -4.3 12 14.0 NNW 11 17 6 9 1007.4 1007.4 0.0
21/05:30pm 29.0 23.5 -5.7 10 14.9 NNW 15 24 8 13 1007.3 1007.3 0.0
21/05:00pm 29.4 23.0 -6.7 9 15.3 NNW 19 32 10 17 1007.3 1007.3 0.0
21/04:30pm 29.7 24.2 -5.1 10 15.2 NW 15 24 8 13 1007.6 1007.6 0.0
21/04:00pm 29.5 23.1 -6.7 9 15.4 NNW 19 30 10 16 1007.9 1007.9 0.0
21/03:30pm 30.0 24.0 -6.3 9 15.6 NNW 17 28 9 15 1008.0 1008.0 0.0
21/03:00pm 29.2 22.6 -6.9 9 15.2 NNW 20 30 11 16 1008.3 1008.3 0.0
21/02:30pm 28.8 22.5 -5.8 10 14.8 N 19 30 10 16 1008.8 1008.8 0.0
21/02:00pm 28.6 22.7 -6.0 10 14.8 NW 17 28 9 15 1009.2 1009.2 0.0
21/01:30pm 27.7 20.8 -6.6 10 14.3 NNW 22 33 12 18 1009.8 1009.8 0.0
21/01:00pm 27.8 21.6 -5.3 11 14.2 NNW 19 33 10 18 1010.3 1010.3 0.0
21/12:30pm 27.2 21.3 -5.8 11 13.9 NNW 17 26 9 14 1010.7 1010.7 0.0
21/12:00pm 24.7 17.9 -5.5 13 12.5 N 22 35 12 19 1011.1 1011.1 0.0
21/11:30am 25.0 17.9 -4.3 14 12.5 N 24 35 13 19 1011.9 1011.9 0.0
21/11:00am 23.5 17.2 -3.7 16 11.5 N 20 30 11 16 1012.5 1012.5 0.0
21/10:30am 22.4 16.2 -3.1 18 10.8 NNW 20 33 11 18 1012.8 1012.8 0.0
21/10:00am 20.1 14.7 -1.7 23 9.3 N 17 22 9 12 1012.9 1012.9 0.0
21/09:30am 19.4 13.5 -2.2 23 9.1 NNW 19 26 10 14 1013.2 1013.2 0.0
21/09:00am 18.6 12.5 -2.3 24 8.7 NNW 20 32 11 17 1013.4 1013.4 0.0
21/08:30am 17.9 11.4 -2.4 25 8.4 N 22 32 12 17 1013.2 1013.2 0.0
21/08:00am 16.0 9.9 -2.0 29 7.4 N 20 24 11 13 1013.2 1013.2 0.0
21/07:30am 14.3 8.4 -2.1 32 6.6 N 19 24 10 13 1013.0 1013.0 0.0
21/07:00am 12.5 7.1 -1.4 38 5.6 N 17 20 9 11 1012.9 1012.9 0.0
21/06:30am 11.8 6.9 -0.7 42 5.0 N 15 17 8 9 1012.9 1012.9 0.0
21/06:00am 12.2 7.2 -1.0 40 5.3 N 15 19 8 10 1012.7 1012.7 0.0
21/05:30am 12.2 6.5 -0.6 41 5.2 N 19 22 10 12 1012.3 1012.3 0.0
21/05:00am 13.2 7.4 -1.2 37 5.8 N 19 24 10 13 1012.3 1012.3 0.0
21/04:30am 13.3 7.3 -1.4 36 5.9 N 20 28 11 15 1012.4 1012.4 0.0
21/04:00am 12.6 6.8 0.0 42 5.2 N 20 24 11 13 1012.5 1012.5 0.0
21/03:30am 12.7 6.8 -0.5 40 5.4 N 20 22 11 12 1012.9 1012.9 0.0
21/03:00am 13.0 7.8 0.1 41 5.4 N 17 22 9 12 1013.3 1013.3 0.0
21/02:30am 9.2 5.1 2.1 61 3.0 N 13 17 7 9 1013.4 1013.4 0.0
21/02:00am 10.8 7.0 1.6 53 3.9 NNE 11 13 6 7 1013.8 1013.8 0.0
21/01:30am 10.7 6.5 1.5 53 3.9 NNE 13 13 7 7 1013.7 1013.7 0.0
21/01:00am 10.9 6.8 2.0 54 3.8 NNE 13 15 7 8 1014.0 1014.0 0.0
21/12:30am 11.5 6.9 1.7 51 4.2 NNE 15 17 8 9 1014.2 1014.2 0.0
21/12:00am 11.0 6.5 2.3 55 3.7 NNE 15 17 8 9 1014.5 1014.5 0.0
 
Date/Time
EST
Temp
°C
App
Temp
°C
Dew
Point
°C
Rel
Hum
%
Delta-T
°C
Wind Press
QNH
hPa
Press
MSL
hPa
Rain since
9am
mm
Dir  Spd
km/h
Gust
km/h
Spd
kts
Gust
kts
20/11:30pm 11.5 7.4 2.3 53 4.0 NNE 13 15 7 8 1014.9 1014.9 0.0
20/11:00pm 11.5 7.0 2.3 53 4.0 NE 15 17 8 9 1015.2 1015.2 0.0
20/10:30pm 11.8 7.4 2.5 53 4.0 NNE 15 17 8 9 1015.5 1015.5 0.0
20/10:00pm 12.7 8.3 2.6 50 4.4 NNE 15 15 8 8 1015.6 1015.6 0.0
20/09:30pm 13.0 9.4 2.8 50 4.5 NE 11 13 6 7 1015.6 1015.6 0.0
20/09:00pm 14.5 10.4 2.4 44 5.4 NE 13 15 7 8 1015.7 1015.7 0.0
20/08:30pm 15.8 11.3 2.2 40 6.1 NE 15 17 8 9 1015.9 1015.9 0.0
20/08:00pm 14.9 11.3 3.1 45 5.3 NE 11 13 6 7 1015.9 1015.9 0.0
20/07:30pm 15.2 12.0 3.0 44 5.5 NE 9 11 5 6 1016.0 1016.0 0.0
20/07:00pm 15.8 12.5 2.6 41 5.9 NE 9 9 5 5 1015.9 1015.9 0.0
20/06:30pm 17.1 13.4 2.3 37 6.7 NNE 11 13 6 7 1015.9 1015.9 0.0
20/06:00pm 19.9 14.9 1.4 29 8.4 N 17 22 9 12 1015.8 1015.8 0.0
20/05:30pm 21.1 15.6 0.9 26 9.2 NNE 19 24 10 13 1015.9 1015.9 0.0
20/05:00pm 21.8 16.7 0.9 25 9.5 N 17 22 9 12 1015.9 1015.9 0.0
20/04:30pm 22.0 17.0 1.1 25 9.6 N 17 28 9 15 1016.0 1016.0 0.0
20/04:00pm 21.7 16.6 0.8 25 9.5 N 17 24 9 13 1016.2 1016.2 0.0
20/03:30pm 21.7 16.6 0.8 25 9.5 N 17 26 9 14 1016.5 1016.5 0.0
20/03:00pm 21.3 16.7 1.6 27 9.1 ENE 15 22 8 12 1016.9 1016.9 0.0
20/02:30pm 21.2 17.1 2.0 28 8.9 NNE 13 20 7 11 1017.7 1017.6 0.0
20/02:00pm 20.9 17.2 2.2 29 8.7 N 11 19 6 10 1018.4 1018.3 0.0
20/01:30pm 19.9 15.8 2.3 31 8.1 N 13 20 7 11 1019.1 1019.0 0.0
20/01:00pm 20.3 16.3 3.1 32 8.1 N 13 20 7 11 1019.6 1019.6 0.0
20/12:30pm 19.7 16.7 4.2 36 7.4 NNW 9 15 5 8 1020.1 1020.1 0.0
20/12:00pm 18.8 15.2 3.0 35 7.3 NNW 11 19 6 10 1020.6 1020.6 0.0
20/11:30am 17.7 13.7 2.8 37 6.8 NNW 13 17 7 9 1021.1 1021.1 0.0
20/11:00am 17.2 13.2 3.1 39 6.5 N 13 20 7 11 1021.1 1021.1 0.0
20/10:30am 16.9 12.2 2.9 39 6.4 NNE 17 22 9 12 1021.5 1021.5 0.0
20/10:00am 15.8 11.2 3.6 44 5.6 NNE 17 22 9 12 1022.0 1022.0 0.0
20/09:30am 14.5 9.6 4.2 50 4.8 NNE 19 22 10 12 1022.2 1022.2 0.0
20/09:00am 12.8 7.9 4.0 55 4.0 NNE 19 24 10 13 1022.6 1022.6 0.0
20/08:30am 11.4 6.5 3.9 60 3.3 NNE 19 24 10 13 1022.6 1022.6 0.0
20/08:00am 9.5 5.3 3.9 68 2.4 NNE 15 22 8 12 1022.7 1022.7 0.0
20/07:30am 7.7 4.7 4.3 79 1.5 NNE 9 13 5 7 1022.6 1022.6 0.0
20/07:00am 5.7 2.1 3.0 83 1.1 NNE 11 13 6 7 1022.5 1022.5 0.0
20/06:30am 5.0 1.8 2.9 86 0.9 NNE 9 11 5 6 1022.3 1022.3 0.0
20/06:00am 5.0 1.7 2.5 84 1.0 NNE 9 11 5 6 1022.1 1022.1 0.0
20/05:30am 5.2 2.0 2.9 85 0.9 NE 9 9 5 5 1021.8 1021.8 0.0
20/05:00am 4.9 1.7 3.1 88 0.7 NE 9 11 5 6 1021.6 1021.6 0.0
20/04:30am 4.4 1.6 2.9 90 0.6 ENE 7 7 4 4 1021.7 1021.7 0.0
20/04:00am 5.2 2.6 3.1 86 0.9 NE 6 7 3 4 1021.6 1021.6 0.0
20/03:30am 5.9 2.8 3.6 85 1.0 NE 9 11 5 6 1021.5 1021.5 0.0
20/03:00am 5.2 2.4 3.4 88 0.7 ENE 7 11 4 6 1021.6 1021.6 0.0
20/02:30am 6.5 3.9 4.2 85 1.0 NNE 7 9 4 5 1021.7 1021.7 0.0
20/02:00am 6.7 4.2 5.0 89 0.7 NNE 7 9 4 5 1022.0 1022.0 0.0
20/01:30am 7.1 4.8 5.6 90 0.7 NE 7 9 4 5 1022.5 1022.5 0.0
20/01:00am 7.4 4.9 5.0 85 1.1 NE 7 9 4 5 1022.6 1022.6 0.0
20/12:30am 6.7 4.2 4.0 83 1.2 NE 6 7 3 4 1022.8 1022.8 0.0
20/12:00am 6.9 4.3 4.4 84 1.1 ENE 7 9 4 5 1022.8 1022.8 0.0
 
Date/Time
EST
Temp
°C
App
Temp
°C
Dew
Point
°C
Rel
Hum
%
Delta-T
°C
Wind Press
QNH
hPa
Press
MSL
hPa
Rain since
9am
mm
Dir  Spd
km/h
Gust
km/h
Spd
kts
Gust
kts
19/11:30pm 6.8 4.3 3.6 80 1.4 ESE 6 6 3 3 1023.2 1023.2 0.0
19/11:00pm 6.6 4.0 3.4 80 1.3 SE 6 7 3 4 1023.4 1023.4 0.0
19/10:30pm 6.8 4.2 3.4 79 1.4 SSE 6 6 3 3 1023.5 1023.5 0.0
19/10:00pm 7.3 5.9 3.4 76 1.6 CALM 0 0 0 0 1023.6 1023.6 0.0
19/09:30pm 8.0 5.5 3.5 73 1.9 SSW 6 7 3 4 1023.6 1023.6 0.0
19/09:00pm 8.6 6.0 3.2 69 2.3 S 6 7 3 4 1023.4 1023.4 0.0
19/08:30pm 9.1 7.3 3.3 67 2.5 SW 2 6 1 3 1023.4 1023.4 0.0
19/08:00pm 10.2 7.7 3.5 63 2.9 SSW 6 7 3 4 1023.2 1023.2 0.0
19/07:30pm 11.4 8.5 2.7 55 3.8 SW 7 9 4 5 1023.1 1023.1 0.0
19/07:00pm 12.8 10.0 2.9 51 4.4 SW 7 9 4 5 1022.9 1022.9 0.0
19/06:30pm 14.1 11.3 3.0 47 5.0 SW 7 11 4 6 1022.7 1022.7 0.0
19/06:00pm 15.4 12.2 3.2 44 5.5 SSW 9 15 5 8 1022.5 1022.5 0.0
19/05:30pm 16.0 11.9 2.1 39 6.2 SW 13 20 7 11 1022.3 1022.3 0.0
19/05:00pm 16.2 11.8 2.9 41 6.0 SSW 15 20 8 11 1022.1 1022.1 0.0
19/04:30pm 16.1 11.3 2.5 40 6.1 SW 17 26 9 14 1022.1 1022.1 0.0
19/04:00pm 16.1 11.7 2.9 41 6.0 SW 15 22 8 12 1022.1 1022.1 0.0
19/03:30pm 16.6 11.9 3.0 40 6.2 SW 17 28 9 15 1022.2 1022.2 0.0
19/03:00pm 16.8 12.0 2.8 39 6.4 WSW 17 28 9 15 1022.6 1022.6 0.0
19/02:30pm 16.1 12.0 2.5 40 6.1 W 13 26 7 14 1022.8 1022.8 0.0
19/02:00pm 16.3 11.7 3.7 43 5.8 SW 17 24 9 13 1023.1 1023.1 0.0
19/01:30pm 15.6 11.6 2.7 42 5.8 SW 13 22 7 12 1023.3 1023.3 0.0
19/01:00pm 15.0 10.7 3.2 45 5.3 SW 15 24 8 13 1023.7 1023.7 0.0
19/12:30pm 14.4 10.2 3.8 49 4.8 SW 15 28 8 15 1024.1 1024.1 0.0
19/12:00pm 14.3 10.1 3.7 49 4.8 SW 15 22 8 12 1024.3 1024.3 0.0
19/11:30am 13.7 9.1 3.5 50 4.6 SSW 17 26 9 14 1024.5 1024.5 0.0
19/11:00am 13.1 8.7 4.5 56 3.9 SSW 17 26 9 14 1024.7 1024.7 0.0

Other Formats:

Comma delimited format used in spreadsheet applications
http://www.bom.gov.au/fwo/IDN60801/IDN60801.94693.axf

JavaScript Object Notation format (JSON) in row-major order
http://www.bom.gov.au/fwo/IDN60801/IDN60801.94693.json